• Join FlightAware (Why Join?)
  • Login
  • US Flag 
06:13PM EDT


 

Airport Tracker/Info


-or-


 

Live Flight TrackerFlight Track Log ✈ EJA929 ✈ 14-Aug-2013 ✈ KHOU - KBHM

Flight Track Log - Related Links

Times and Time Zones

All times are in EDT time to prevent confusion due to time zone crossing. See the EJA929 flight status page for this flight to view local times or setup timezone preferences in your user account.

Time Position Orientation Groundspeed Altitude Reporting Facility
EDT Latitude Longitude Course Direction KTS MPH feet Rate Location/Type
04:51PM 29.6583 -95.2647 North 183 211 700  Level Houston Center
04:52PM 29.6972 -95.2608 North 223 257 2,900 3,060 Climbing Houston Center
04:53PM 29.7650 -95.2800 346° North 245 282 6,400 3,780 Climbing Houston Center
04:54PM 29.8422 -95.2914 353° North 272 313 10,800 3,060 Climbing Houston Center
04:55PM 29.9267 -95.2894 North 297 342 12,800 2,160 Climbing Houston Center
04:56PM 30.0153 -95.3431 332° Northwest 302 348 15,400 1,500 Climbing Houston Center
04:57PM 30.0964 -95.3753 341° North 333 383 16,000 240 Climbing Houston Center
04:58PM 30.1633 -95.3078 41° Northeast 341 392 16,000  Level Houston Center
04:59PM 30.2228 -95.2328 47° Northeast 319 367 16,000 240 Level Houston Center
05:00PM 30.2942 -95.1433 47° Northeast 366 421 16,500 1,020 Climbing Houston Center
05:01PM 30.3669 -95.0528 47° Northeast 382 440 18,200 1,680 Climbing Houston Center
05:02PM 30.4594 -94.9481 44° Northeast 384 442 20,000 1,440 Climbing Houston Center
05:04PM 30.5333 -94.8547 47° Northeast 389 448 21,200 1,140 Climbing Houston Center
05:05PM 30.6100 -94.7589 47° Northeast 401 461 22,400 1,320 Climbing Houston Center
05:06PM 30.6883 -94.6625 47° Northeast 407 468 24,000 1,320 Climbing Houston Center
05:07PM 30.7667 -94.5644 47° Northeast 412 474 25,200 1,200 Climbing Houston Center
05:08PM 30.8639 -94.4472 46° Northeast 419 482 26,500 1,140 Climbing Houston Center
05:09PM 30.9450 -94.3467 47° Northeast 425 489 27,600 1,020 Climbing Houston Center
05:10PM 31.0275 -94.2453 46° Northeast 431 496 28,700 1,020 Climbing Houston Center
05:11PM 31.1144 -94.1422 45° Northeast 443 510 29,800 960 Climbing Houston Center
05:12PM 31.2033 -94.0356 46° Northeast 455 524 30,800 720 Climbing Houston Center
05:13PM 31.3117 -93.9100 45° Northeast 458 527 31,400 660 Climbing Houston Center
05:14PM 31.4269 -93.8419 27° Northeast 462 532 32,200 840 Climbing Houston Center
05:15PM 31.5497 -93.7983 17° North 466 536 33,200 960 Climbing Houston Center
05:16PM 31.6617 -93.7225 30° Northeast 482 555 34,200 960 Climbing Houston Center
05:17PM 31.7606 -93.6119 44° Northeast 492 566 35,200 960 Climbing Houston Center
05:18PM 31.8622 -93.4947 44° Northeast 499 574 36,300 1,020 Climbing Houston Center
05:19PM 31.9853 -93.3553 44° Northeast 508 585 37,400 960 Climbing Houston Center
05:20PM 32.0858 -93.2378 45° Northeast 507 583 38,400 900 Climbing Houston Center
05:21PM 32.1264 -93.1453 63° Northeast 506 582 39,000 900 Climbing Fort Worth Center
05:22PM 32.1986 -92.9969 60° Northeast 512 589 40,000 960 Climbing Fort Worth Center
05:23PM 32.2725 -92.8461 60° Northeast 518 596 41,000 480 Climbing Fort Worth Center
05:24PM 32.3419 -92.6925 62° Northeast 523 602 41,000  Level Fort Worth Center
05:25PM 32.4194 -92.5311 60° Northeast 534 615 41,000  Level Fort Worth Center
05:26PM 32.4908 -92.3844 60° Northeast 534 615 41,000  Level Fort Worth Center
05:27PM 32.5658 -92.2297 60° Northeast 534 615 41,000  Level Fort Worth Center
05:29PM 32.7383 -91.8514 61° Northeast 536 617 41,000  Level Memphis Center
05:30PM 32.8131 -91.6994 60° Northeast 530 610 41,000  Level Memphis Center
05:31PM 32.8878 -91.5422 60° Northeast 537 618 41,000  Level Memphis Center
05:32PM 32.9581 -91.3822 62° Northeast 543 625 41,000  Level Memphis Center
05:33PM 33.0300 -91.2244 61° Northeast 538 619 41,000  Level Memphis Center
05:34PM 33.1042 -91.0689 60° Northeast 538 619 41,000  Level Memphis Center
05:35PM 33.1781 -90.9083 61° Northeast 538 619 41,000  Level Memphis Center
05:36PM 33.2494 -90.7497 62° Northeast 538 619 41,000 -60 Level Memphis Center
05:37PM 33.3231 -90.5908 61° Northeast 538 619 40,900 -840 Descending Memphis Center
05:38PM 33.3942 -90.4319 62° Northeast 538 619 39,400 -1,500 Descending Memphis Center
05:39PM 33.4589 -90.2675 65° Northeast 538 619 37,900 -1,500 Descending Memphis Center
05:40PM 33.4689 -90.0808 86° East 538 619 36,400 -1,500 Descending Memphis Center
05:41PM 33.4725 -89.8914 89° East 554 638 35,000 -720 Descending Memphis Center
05:42PM 33.4739 -89.6997 89° East 565 650 35,000 -600 Level Memphis Center
05:43PM 33.4769 -89.5081 89° East 570 656 33,800 -1,440 Descending Memphis Center
05:44PM 33.4794 -89.3186 89° East 570 656 32,200 -1,800 Descending Memphis Center
05:45PM 33.4819 -89.1294 89° East 570 656 30,300 -1,980 Descending Memphis Center
05:46PM 33.4819 -88.9400 90° East 570 656 28,300 -2,160 Descending Memphis Center
05:47PM 33.4847 -88.8206 88° East 560 644 27,000 -2,220 Descending Memphis Center
05:48PM 33.4850 -88.6758 90° East 536 617 25,300 -1,920 Descending Memphis Center
05:48PM 33.4839 -88.5864 91° East 534 615 24,300 -840 Descending Memphis Center
05:49PM 33.4958 -88.4167 85° East 517 595 24,000 -180 Descending Memphis Center
05:50PM 33.5183 -88.2517 81° East 511 588 24,000 -1,560 Level Memphis Center
05:51PM 33.5381 -88.0694 83° East 506 582 20,900 -3,120 Descending Memphis Center
05:52PM 33.5558 -87.9119 82° East 499 574 17,800 -2,880 Descending Memphis Center
05:53PM 33.5717 -87.7667 83° East 467 537 15,200 -2,580 Descending Memphis Center
05:54PM 33.5897 -87.6292 81° East 438 504 12,700 -1,620 Descending Memphis Center
05:55PM 33.5997 -87.5167 84° East 388 447 12,000 -1,320 Descending Memphis Center
05:56PM 33.6119 -87.4214 81° East 326 375 10,100 -1,860 Descending Memphis Center
05:57PM 33.6178 -87.3689 82° East 296 341 9,200 -780 Descending Atlanta Center
05:58PM 33.6239 -87.2994 84° East 279 321 9,100 -60 Descending Atlanta Center
05:59PM 33.6347 -87.2050 82° East 280 322 9,100 -660 Level Atlanta Center
06:00PM 33.6028 -87.1389 120° Southeast 266 306 7,800 -1,620 Descending Atlanta Center
06:01PM 33.5281 -87.1239 170° South 264 304 5,900 -2,220 Descending Atlanta Center
06:02PM 33.4431 -87.1033 169° South 251 289 3,000 -1,320 Descending Atlanta Center
06:03PM 33.4147 -87.0625 130° Southeast 164 189 3,100  Climbing Atlanta Center
06:04PM 33.4306 -87.0133 69° East 143 165 3,100  Level Atlanta Center
06:05PM 33.4506 -86.9667 63° Northeast 158 182 3,100  Level Atlanta Center
06:06PM 33.4683 -86.9200 65° Northeast 163 188 3,100 -180 Level Atlanta Center
06:07PM 33.4922 -86.8858 50° Northeast 144 166 2,800 -540 Descending Atlanta Center
06:08PM 33.5119 -86.8442 60° Northeast 133 153 2,100 -720 Descending Atlanta Center
06:09PM 33.5358 -86.8025 55° Northeast 139 160 1,300 -780 Descending Atlanta Center